createdAt,value
2023-04-16T00:00:48.370Z,8.40
2023-04-16T00:01:50.266Z,8.30
2023-04-16T00:02:51.900Z,7.22
2023-04-16T00:03:54.200Z,8.07
2023-04-16T00:04:56.133Z,9.30
2023-04-16T00:05:57.690Z,8.52
2023-04-16T00:06:59.125Z,8.23
2023-04-16T00:08:00.721Z,8.57
2023-04-16T00:09:02.265Z,7.57
2023-04-16T00:10:04.069Z,7.82
2023-04-16T00:11:05.689Z,7.97
2023-04-16T00:12:07.610Z,7.85
2023-04-16T00:13:09.085Z,7.47
2023-04-16T00:14:10.567Z,8.32
2023-04-16T00:15:12.130Z,8.32
2023-04-16T00:16:14.010Z,10.15
2023-04-16T00:17:15.833Z,8.43
2023-04-16T00:18:17.310Z,10.18
2023-04-16T00:19:18.864Z,9.25
2023-04-16T00:20:21.147Z,8.43
2023-04-16T00:21:22.668Z,9.05
2023-04-16T00:22:24.150Z,8.40
2023-04-16T00:23:25.665Z,8.30
2023-04-16T00:24:27.447Z,8.48
2023-04-16T00:25:28.949Z,8.52
2023-04-16T00:26:30.643Z,8.80
2023-04-16T00:27:32.202Z,9.70
2023-04-16T00:28:33.734Z,9.25
2023-04-16T00:29:35.367Z,9.65
2023-04-16T00:30:36.901Z,9.30
2023-04-16T00:31:38.663Z,8.77
2023-04-16T00:32:40.153Z,8.27
2023-04-16T00:33:41.691Z,8.93
2023-04-16T00:34:43.396Z,8.88
2023-04-16T00:35:48.380Z,9.65
2023-04-16T00:36:49.877Z,10.55
2023-04-16T00:37:51.376Z,9.27
2023-04-16T00:38:53.998Z,8.48
2023-04-16T00:39:55.650Z,10.02
2023-04-16T00:40:59.756Z,9.35
2023-04-16T00:42:01.813Z,11.10
2023-04-16T00:43:03.491Z,9.20
2023-04-16T00:44:04.969Z,9.27
2023-04-16T00:45:07.126Z,11.05
2023-04-16T00:46:08.985Z,10.20
2023-04-16T00:47:11.572Z,8.35
2023-04-16T00:48:13.121Z,8.32
2023-04-16T00:49:14.890Z,10.18
2023-04-16T00:50:17.585Z,9.75
2023-04-16T00:51:21.335Z,10.73
2023-04-16T00:52:23.041Z,9.30
2023-04-16T00:53:26.248Z,10.05
2023-04-16T00:54:28.410Z,8.55
2023-04-16T00:55:29.953Z,9.68
2023-04-16T00:56:33.612Z,9.63
2023-04-16T00:57:35.110Z,8.60
2023-04-16T00:58:36.774Z,7.95
2023-04-16T00:59:38.274Z,7.75
2023-04-16T01:00:40.058Z,7.93
2023-04-16T01:01:41.794Z,10.20
2023-04-16T01:02:43.563Z,8.88
2023-04-16T01:03:47.901Z,8.00
2023-04-16T01:04:49.567Z,8.95
2023-04-16T01:05:51.331Z,9.90
2023-04-16T01:06:52.918Z,8.60
2023-04-16T01:07:58.831Z,8.85
2023-04-16T01:09:00.678Z,9.95
2023-04-16T01:10:03.347Z,9.18
2023-04-16T01:11:05.748Z,9.68
2023-04-16T01:12:07.233Z,9.20
2023-04-16T01:13:08.778Z,10.77
2023-04-16T01:14:10.259Z,8.80
2023-04-16T01:15:11.881Z,9.00
2023-04-16T01:16:13.495Z,8.68
2023-04-16T01:17:15.056Z,8.82
2023-04-16T01:18:18.143Z,10.25
2023-04-16T01:19:19.612Z,10.27
2023-04-16T01:20:21.147Z,8.95
2023-04-16T01:21:22.766Z,9.02
2023-04-16T01:22:24.253Z,9.98
2023-04-16T01:23:25.873Z,9.63
2023-04-16T01:24:28.131Z,9.60
2023-04-16T01:25:29.753Z,9.68
2023-04-16T01:26:31.593Z,9.20
2023-04-16T01:27:33.084Z,9.93
2023-04-16T01:28:35.278Z,10.00
2023-04-16T01:29:37.039Z,9.18
2023-04-16T01:30:38.791Z,9.88
2023-04-16T01:31:48.528Z,10.05
2023-04-16T01:33:15.016Z,10.45
2023-04-16T01:34:16.955Z,9.25
2023-04-16T01:35:19.330Z,10.10
2023-04-16T01:36:20.959Z,8.35
2023-04-16T01:37:22.444Z,9.10
2023-04-16T01:38:23.996Z,10.13
2023-04-16T01:39:25.512Z,8.73
2023-04-16T01:40:26.978Z,8.27
2023-04-16T01:41:28.441Z,7.68
2023-04-16T01:42:29.967Z,7.72
2023-04-16T01:43:31.545Z,7.47
2023-04-16T01:44:33.326Z,8.93
2023-04-16T01:45:35.513Z,8.93
2023-04-16T01:46:38.112Z,9.10
2023-04-16T01:47:40.306Z,9.32
2023-04-16T01:48:42.175Z,7.88
2023-04-16T01:49:45.619Z,8.13
2023-04-16T01:50:47.300Z,9.20
2023-04-16T01:51:48.936Z,7.20
2023-04-16T01:52:50.497Z,7.30
2023-04-16T01:53:51.957Z,7.33
2023-04-16T01:54:53.490Z,8.43
2023-04-16T01:55:55.055Z,8.32
2023-04-16T01:56:57.267Z,7.43
2023-04-16T01:57:58.765Z,6.97
2023-04-16T01:59:03.608Z,6.90
2023-04-16T02:00:11.482Z,7.68
2023-04-16T02:01:20.246Z,6.75
2023-04-16T02:02:27.962Z,6.60
2023-04-16T02:03:31.232Z,7.93
2023-04-16T02:04:32.950Z,6.77
2023-04-16T02:05:34.471Z,7.88
2023-04-16T02:06:36.041Z,7.50
2023-04-16T02:07:37.604Z,8.32
2023-04-16T02:08:39.076Z,6.75
2023-04-16T02:09:41.462Z,6.95
2023-04-16T02:10:46.731Z,6.93
2023-04-16T02:11:48.326Z,6.28
2023-04-16T02:12:49.971Z,7.05
2023-04-16T02:13:51.712Z,6.93
2023-04-16T02:14:53.905Z,7.05
2023-04-16T02:15:56.501Z,7.47
2023-04-16T02:17:09.875Z,6.55
2023-04-16T02:18:13.035Z,6.25
2023-04-16T02:19:14.533Z,6.40
2023-04-16T02:20:18.082Z,5.82
2023-04-16T02:21:27.575Z,6.28
2023-04-16T02:22:29.299Z,5.83
2023-04-16T02:23:30.790Z,6.75
2023-04-16T02:24:33.890Z,6.25
2023-04-16T02:25:41.462Z,5.93
2023-04-16T02:26:45.096Z,5.80
2023-04-16T02:27:50.290Z,5.55
2023-04-16T02:29:06.882Z,4.88
2023-04-16T02:30:17.649Z,5.38
2023-04-16T02:31:19.633Z,5.93
2023-04-16T02:32:23.086Z,5.07
2023-04-16T02:33:26.568Z,6.18
2023-04-16T02:34:34.595Z,4.68
2023-04-16T02:35:37.286Z,4.93
2023-04-16T02:36:39.410Z,4.35
2023-04-16T02:37:40.968Z,5.53
2023-04-16T02:38:42.438Z,4.70
2023-04-16T02:39:45.021Z,4.93
2023-04-16T02:40:48.526Z,6.00
2023-04-16T02:41:52.402Z,5.63
2023-04-16T02:42:55.224Z,6.03
2023-04-16T02:43:57.251Z,4.80
2023-04-16T02:44:58.945Z,5.05
2023-04-16T02:46:00.963Z,5.43
2023-04-16T02:47:02.447Z,5.78
2023-04-16T02:48:04.103Z,5.32
2023-04-16T02:49:05.841Z,5.10
2023-04-16T02:50:07.950Z,6.15
2023-04-16T02:51:09.517Z,5.40
2023-04-16T02:52:10.986Z,6.35
2023-04-16T02:53:12.488Z,5.85
2023-04-16T02:54:13.944Z,4.18
2023-04-16T02:55:16.053Z,5.05
2023-04-16T02:56:17.804Z,4.88
2023-04-16T02:57:19.369Z,4.70
2023-04-16T02:58:22.026Z,5.18
2023-04-16T02:59:23.529Z,4.88
2023-04-16T03:00:25.611Z,7.00
2023-04-16T03:01:28.458Z,6.18
2023-04-16T03:02:30.161Z,6.27
2023-04-16T03:03:31.783Z,5.00
2023-04-16T03:04:33.444Z,4.95
2023-04-16T03:05:35.066Z,7.63
2023-04-16T03:06:36.780Z,6.38
2023-04-16T03:07:39.245Z,5.93
2023-04-16T03:08:40.728Z,5.40
2023-04-16T03:09:42.259Z,5.63
2023-04-16T03:10:43.794Z,4.90
2023-04-16T03:11:45.381Z,5.18
2023-04-16T03:12:47.050Z,6.40
2023-04-16T03:13:48.877Z,5.65
2023-04-16T03:14:52.495Z,6.13
2023-04-16T03:15:54.208Z,5.85
2023-04-16T03:16:56.026Z,5.53
2023-04-16T03:17:57.894Z,5.60
2023-04-16T03:18:59.431Z,5.70
2023-04-16T03:20:00.932Z,5.93
2023-04-16T03:21:02.490Z,5.25
2023-04-16T03:22:04.399Z,6.28
2023-04-16T03:23:06.140Z,5.57
2023-04-16T03:24:07.640Z,6.10
2023-04-16T03:25:09.437Z,5.75
2023-04-16T03:26:10.960Z,6.18
2023-04-16T03:27:12.586Z,5.95
2023-04-16T03:28:15.041Z,5.50
2023-04-16T03:29:17.074Z,5.63
2023-04-16T03:30:18.785Z,6.28
2023-04-16T03:31:20.618Z,6.00
2023-04-16T03:32:22.211Z,7.47
2023-04-16T03:33:24.125Z,8.63
2023-04-16T03:34:26.088Z,6.70
2023-04-16T03:35:27.975Z,5.32
2023-04-16T03:36:29.490Z,5.80
2023-04-16T03:37:31.924Z,6.07
2023-04-16T03:38:33.736Z,7.10
2023-04-16T03:39:35.497Z,7.80
2023-04-16T03:40:37.015Z,6.53
2023-04-16T03:41:38.570Z,7.50
2023-04-16T03:42:40.057Z,7.53
2023-04-16T03:43:41.589Z,7.05
2023-04-16T03:44:44.889Z,7.45
2023-04-16T03:45:47.418Z,7.45
2023-04-16T03:46:48.969Z,8.45
2023-04-16T03:47:52.849Z,8.20
2023-04-16T03:48:57.396Z,9.57
2023-04-16T03:49:58.930Z,8.27
2023-04-16T03:51:00.651Z,9.90
2023-04-16T03:52:02.806Z,9.57
2023-04-16T03:53:04.289Z,8.90
2023-04-16T03:54:06.198Z,9.60
2023-04-16T03:55:08.396Z,10.38
2023-04-16T03:56:10.028Z,8.40
2023-04-16T03:57:12.136Z,8.18
2023-04-16T03:58:14.002Z,10.18
2023-04-16T03:59:15.592Z,10.57
2023-04-16T04:00:19.081Z,9.40
2023-04-16T04:01:33.471Z,10.48
2023-04-16T04:02:35.618Z,8.93
2023-04-16T04:03:37.431Z,9.70
2023-04-16T04:04:39.370Z,10.55
2023-04-16T04:05:42.199Z,9.35
2023-04-16T04:06:46.950Z,9.60
2023-04-16T04:07:48.641Z,10.45
2023-04-16T04:08:50.404Z,9.05
2023-04-16T04:09:51.874Z,10.18
2023-04-16T04:10:53.426Z,8.70
2023-04-16T04:11:57.451Z,9.75
2023-04-16T04:12:59.203Z,8.57
2023-04-16T04:14:00.774Z,9.15
2023-04-16T04:15:02.339Z,9.38
2023-04-16T04:16:04.713Z,8.80
2023-04-16T04:17:08.075Z,9.63
2023-04-16T04:18:09.650Z,8.80
2023-04-16T04:19:11.678Z,8.30
2023-04-16T04:20:13.251Z,9.93
2023-04-16T04:21:17.926Z,10.30
2023-04-16T04:22:19.847Z,9.40
2023-04-16T04:23:21.564Z,9.43
2023-04-16T04:24:23.226Z,9.88
2023-04-16T04:25:25.121Z,9.80
2023-04-16T04:26:26.906Z,8.65
2023-04-16T04:27:28.487Z,10.82
2023-04-16T04:28:30.723Z,9.23
2023-04-16T04:29:33.455Z,9.95
2023-04-16T04:30:36.274Z,9.07
2023-04-16T04:31:37.965Z,8.02
2023-04-16T04:32:39.662Z,7.63
2023-04-16T04:33:41.168Z,9.18
2023-04-16T04:34:42.687Z,8.60
2023-04-16T04:35:44.454Z,9.05
2023-04-16T04:36:46.316Z,8.82
2023-04-16T04:37:49.011Z,9.13
2023-04-16T04:38:53.761Z,8.57
2023-04-16T04:39:56.123Z,8.10
2023-04-16T04:40:57.818Z,7.90
2023-04-16T04:42:03.116Z,10.25
2023-04-16T04:43:04.642Z,9.32
2023-04-16T04:44:06.418Z,10.27
2023-04-16T04:45:08.952Z,10.32
2023-04-16T04:46:10.878Z,7.88
2023-04-16T04:47:12.590Z,7.88
2023-04-16T04:48:15.252Z,7.55
2023-04-16T04:49:17.002Z,7.30
2023-04-16T04:50:18.939Z,9.13
2023-04-16T04:51:21.528Z,6.97
2023-04-16T04:52:23.028Z,8.02
2023-04-16T04:53:25.492Z,8.15
2023-04-16T04:54:27.887Z,7.78
2023-04-16T04:55:30.029Z,7.75
2023-04-16T04:56:33.232Z,7.65
2023-04-16T04:57:34.768Z,7.72
2023-04-16T04:58:37.209Z,7.35
2023-04-16T04:59:38.694Z,7.53
2023-04-16T05:00:40.332Z,8.05
2023-04-16T05:01:41.962Z,7.75
2023-04-16T05:02:43.596Z,7.38
2023-04-16T05:03:45.424Z,9.00
2023-04-16T05:04:47.012Z,7.53
2023-04-16T05:05:48.476Z,7.22
2023-04-16T05:06:49.973Z,7.82
2023-04-16T05:07:51.573Z,8.57
2023-04-16T05:08:53.058Z,8.13
2023-04-16T05:09:54.492Z,7.63
2023-04-16T05:10:55.973Z,7.45
2023-04-16T05:11:57.814Z,8.88
2023-04-16T05:12:59.308Z,7.32
2023-04-16T05:14:00.967Z,10.90
2023-04-16T05:15:02.454Z,7.93
2023-04-16T05:16:04.105Z,7.75
2023-04-16T05:17:06.063Z,11.73
2023-04-16T05:18:07.651Z,10.38
2023-04-16T05:19:09.354Z,9.93
2023-04-16T05:20:11.415Z,8.07
2023-04-16T05:21:12.848Z,9.85
2023-04-16T05:22:14.650Z,9.05
2023-04-16T05:23:16.274Z,9.50
2023-04-16T05:24:17.789Z,8.57
2023-04-16T05:25:19.344Z,10.00
2023-04-16T05:26:21.168Z,9.07
2023-04-16T05:27:22.626Z,10.35
2023-04-16T05:28:24.310Z,8.57
2023-04-16T05:29:25.906Z,8.90
2023-04-16T05:30:27.366Z,8.65
2023-04-16T05:31:28.876Z,9.95
2023-04-16T05:32:30.457Z,10.43
2023-04-16T05:33:31.959Z,10.27
2023-04-16T05:34:33.811Z,8.73
2023-04-16T05:35:35.570Z,9.50
2023-04-16T05:36:37.181Z,8.57
2023-04-16T05:37:38.711Z,8.02
2023-04-16T05:38:40.260Z,9.90
2023-04-16T05:39:41.705Z,8.40
2023-04-16T05:40:43.473Z,8.45
2023-04-16T05:41:45.022Z,9.93
2023-04-16T05:42:46.520Z,9.30
2023-04-16T05:43:48.001Z,10.13
2023-04-16T05:44:50.751Z,11.23
2023-04-16T05:45:52.266Z,11.90
2023-04-16T05:46:53.863Z,14.38
2023-04-16T05:47:55.387Z,15.80
2023-04-16T05:48:56.908Z,17.35
2023-04-16T05:49:58.360Z,17.55
2023-04-16T05:50:59.817Z,20.73
2023-04-16T05:52:01.650Z,20.77
2023-04-16T05:53:06.901Z,18.63
2023-04-16T05:54:08.398Z,17.88
2023-04-16T05:55:10.438Z,24.50
2023-04-16T05:56:11.932Z,21.92
2023-04-16T05:57:14.006Z,20.97
2023-04-16T05:58:15.585Z,23.13
2023-04-16T05:59:17.052Z,21.05
2023-04-16T06:00:18.657Z,20.58
2023-04-16T06:01:21.281Z,18.90
2023-04-16T06:02:23.136Z,18.20
2023-04-16T06:03:24.862Z,18.52
2023-04-16T06:04:26.414Z,19.05
2023-04-16T06:05:28.060Z,19.88
2023-04-16T06:06:29.583Z,21.05
2023-04-16T06:07:31.032Z,19.35
2023-04-16T06:08:32.479Z,22.52
2023-04-16T06:09:33.983Z,20.15
2023-04-16T06:10:35.736Z,18.55
2023-04-16T06:11:37.261Z,20.00
2023-04-16T06:12:38.687Z,21.48
2023-04-16T06:13:40.273Z,20.35
2023-04-16T06:14:41.734Z,22.33
2023-04-16T06:15:43.285Z,22.08
2023-04-16T06:16:44.776Z,22.15
2023-04-16T06:17:46.277Z,23.35
2023-04-16T06:18:47.928Z,25.77
2023-04-16T06:19:49.398Z,21.95
2023-04-16T06:20:50.895Z,21.60
2023-04-16T06:21:52.976Z,21.27
2023-04-16T06:22:55.847Z,20.25
2023-04-16T06:23:57.380Z,21.83
2023-04-16T06:24:58.846Z,21.02
2023-04-16T06:26:00.351Z,22.85
2023-04-16T06:27:02.723Z,23.13
2023-04-16T06:28:04.319Z,20.42
2023-04-16T06:29:05.887Z,21.15
2023-04-16T06:30:13.605Z,22.67
2023-04-16T06:31:15.475Z,20.88
2023-04-16T06:32:17.562Z,19.75
2023-04-16T06:33:19.264Z,20.63
2023-04-16T06:34:20.831Z,22.20
2023-04-16T06:35:22.416Z,20.80
2023-04-16T06:36:23.902Z,23.15
2023-04-16T06:37:25.406Z,23.20
2023-04-16T06:38:26.892Z,23.45
2023-04-16T06:39:28.331Z,20.85
2023-04-16T06:40:29.806Z,21.90
2023-04-16T06:41:31.300Z,23.35
2023-04-16T06:42:32.774Z,21.92
2023-04-16T06:43:34.442Z,24.23
2023-04-16T06:44:36.170Z,24.65
2023-04-16T06:45:37.731Z,24.55
2023-04-16T06:46:39.254Z,24.33
2023-04-16T06:47:41.026Z,25.52
2023-04-16T06:48:42.679Z,23.45
2023-04-16T06:49:44.263Z,25.40
2023-04-16T06:50:45.771Z,23.10
2023-04-16T06:51:47.656Z,24.75
2023-04-16T06:52:49.142Z,26.17
2023-04-16T06:53:50.604Z,27.02
2023-04-16T06:54:52.066Z,25.00
2023-04-16T06:55:53.577Z,26.98
2023-04-16T06:56:55.333Z,26.25
2023-04-16T06:57:57.098Z,28.88
2023-04-16T06:59:00.819Z,27.10
2023-04-16T07:00:05.032Z,28.42
2023-04-16T07:01:06.816Z,29.25
2023-04-16T07:02:10.484Z,34.30
2023-04-16T07:03:12.487Z,26.88
2023-04-16T07:04:14.613Z,29.98
2023-04-16T07:05:16.301Z,29.58
2023-04-16T07:06:17.817Z,34.05
2023-04-16T07:07:19.346Z,34.72
2023-04-16T07:08:21.004Z,28.30
2023-04-16T07:09:22.580Z,30.83
2023-04-16T07:10:24.120Z,31.73
2023-04-16T07:11:26.526Z,34.15
2023-04-16T07:12:28.066Z,29.67
2023-04-16T07:13:29.584Z,30.05
2023-04-16T07:14:31.128Z,32.08
2023-04-16T07:15:32.666Z,33.25
2023-04-16T07:16:34.184Z,31.90
2023-04-16T07:17:35.741Z,33.60
2023-04-16T07:18:37.378Z,35.50
2023-04-16T07:19:39.098Z,30.80
2023-04-16T07:20:40.793Z,33.17
2023-04-16T07:21:43.623Z,32.70
2023-04-16T07:22:45.278Z,31.67
2023-04-16T07:23:46.847Z,31.25
2023-04-16T07:24:48.308Z,33.10
2023-04-16T07:25:49.780Z,35.22
2023-04-16T07:26:51.305Z,31.60
2023-04-16T07:27:52.797Z,31.33
2023-04-16T07:28:54.456Z,33.47
2023-04-16T07:29:56.081Z,30.42
2023-04-16T07:30:57.677Z,30.08
2023-04-16T07:31:59.327Z,30.00
2023-04-16T07:33:02.484Z,32.45
2023-04-16T07:34:04.077Z,30.92
2023-04-16T07:35:06.040Z,29.67
2023-04-16T07:36:07.635Z,26.83
2023-04-16T07:37:09.253Z,29.02
2023-04-16T07:38:10.789Z,31.98
2023-04-16T07:39:13.407Z,29.85
2023-04-16T07:40:15.239Z,30.80
2023-04-16T07:41:16.822Z,31.20
2023-04-16T07:42:18.426Z,31.23
2023-04-16T07:43:19.910Z,27.20
2023-04-16T07:44:21.515Z,29.27
2023-04-16T07:45:23.851Z,30.23
2023-04-16T07:46:30.411Z,31.42
2023-04-16T07:47:35.117Z,28.55
2023-04-16T07:48:36.690Z,27.77
2023-04-16T07:49:38.595Z,30.75
2023-04-16T07:50:41.733Z,27.80
2023-04-16T07:51:43.331Z,29.73
2023-04-16T07:52:45.849Z,24.92
2023-04-16T07:53:47.367Z,29.27
2023-04-16T07:54:48.848Z,28.00
2023-04-16T07:55:50.594Z,26.00
2023-04-16T07:56:52.300Z,26.45
2023-04-16T07:57:53.907Z,27.13
2023-04-16T07:58:55.446Z,28.92
2023-04-16T07:59:56.880Z,27.40
2023-04-16T08:00:58.807Z,27.33
2023-04-16T08:02:00.411Z,28.05
2023-04-16T08:03:02.085Z,26.50
2023-04-16T08:04:03.923Z,27.17
2023-04-16T08:05:06.161Z,28.02
2023-04-16T08:06:07.674Z,27.30
2023-04-16T08:07:09.538Z,25.55
2023-04-16T08:08:11.095Z,25.70
2023-04-16T08:09:12.777Z,25.52
2023-04-16T08:10:14.272Z,24.85
2023-04-16T08:11:15.862Z,25.70
2023-04-16T08:12:18.058Z,25.73
2023-04-16T08:13:19.539Z,26.50
2023-04-16T08:14:21.031Z,25.95
2023-04-16T08:15:22.538Z,23.05
2023-04-16T08:16:24.264Z,23.13
2023-04-16T08:17:26.048Z,23.95
2023-04-16T08:18:27.563Z,25.17
2023-04-16T08:19:29.009Z,25.25
2023-04-16T08:20:30.570Z,25.65
2023-04-16T08:21:32.533Z,26.42
2023-04-16T08:22:34.054Z,29.52
2023-04-16T08:23:35.575Z,22.75
2023-04-16T08:24:37.059Z,24.33
2023-04-16T08:25:38.569Z,25.73
2023-04-16T08:26:40.691Z,23.83
2023-04-16T08:27:42.179Z,24.50
2023-04-16T08:28:43.621Z,26.25
2023-04-16T08:29:45.064Z,26.27
2023-04-16T08:30:46.602Z,24.80
2023-04-16T08:31:48.308Z,26.00
2023-04-16T08:32:50.560Z,27.60
2023-04-16T08:33:52.496Z,25.88
2023-04-16T08:34:54.296Z,24.73
2023-04-16T08:35:55.805Z,23.70
2023-04-16T08:36:57.333Z,25.35
2023-04-16T08:38:02.198Z,23.55
2023-04-16T08:39:03.921Z,26.38
2023-04-16T08:40:05.900Z,23.45
2023-04-16T08:41:12.031Z,24.40
2023-04-16T08:42:23.494Z,25.00
2023-04-16T08:43:25.966Z,27.23
2023-04-16T08:44:33.846Z,22.38
2023-04-16T08:45:36.444Z,24.30
2023-04-16T08:46:40.624Z,23.23
2023-04-16T08:47:47.335Z,22.15
2023-04-16T08:48:49.937Z,23.05
2023-04-16T08:49:56.818Z,25.13
2023-04-16T08:51:01.584Z,23.08
2023-04-16T08:52:06.681Z,23.38
2023-04-16T08:53:11.818Z,23.80
2023-04-16T08:54:21.061Z,21.23
2023-04-16T08:55:26.416Z,23.83
2023-04-16T08:56:30.539Z,22.73
2023-04-16T08:58:01.669Z,22.35
2023-04-16T08:59:05.566Z,22.48
2023-04-16T09:00:11.421Z,22.10
2023-04-16T09:01:13.570Z,20.55
2023-04-16T09:02:15.550Z,22.45
2023-04-16T09:03:17.264Z,20.02
2023-04-16T09:04:19.532Z,22.13
2023-04-16T09:05:25.521Z,20.75
2023-04-16T09:06:31.327Z,22.73
2023-04-16T09:07:34.186Z,20.63
2023-04-16T09:08:36.442Z,20.33
2023-04-16T09:09:39.309Z,23.10
2023-04-16T09:10:41.120Z,20.60
2023-04-16T09:11:44.222Z,24.50
2023-04-16T09:12:45.984Z,22.42
2023-04-16T09:13:47.706Z,20.33
2023-04-16T09:14:50.011Z,21.25
2023-04-16T09:15:54.903Z,20.92
2023-04-16T09:16:57.549Z,20.63
2023-04-16T09:17:59.113Z,20.17
2023-04-16T09:19:00.920Z,20.43
2023-04-16T09:20:08.906Z,18.75
2023-04-16T09:21:11.243Z,18.03
2023-04-16T09:22:12.916Z,20.00
2023-04-16T09:23:14.439Z,19.45
2023-04-16T09:24:16.458Z,17.38
2023-04-16T09:25:21.976Z,18.40
2023-04-16T09:26:24.244Z,19.73
2023-04-16T09:27:26.278Z,19.42
2023-04-16T09:28:40.833Z,19.33
2023-04-16T09:29:42.610Z,17.90
2023-04-16T09:30:44.138Z,17.27
2023-04-16T09:32:02.102Z,18.60
2023-04-16T09:33:13.708Z,19.00
2023-04-16T09:34:15.649Z,17.50
2023-04-16T09:35:20.875Z,15.77
2023-04-16T09:36:23.477Z,15.50
2023-04-16T09:37:26.426Z,17.10
2023-04-16T09:38:46.398Z,23.02
2023-04-16T09:39:57.747Z,20.00
2023-04-16T09:41:08.890Z,19.02
2023-04-16T09:42:11.550Z,15.95
2023-04-16T09:43:15.491Z,18.80
2023-04-16T09:44:17.000Z,19.17
2023-04-16T09:45:18.469Z,18.73
2023-04-16T09:46:20.083Z,17.30
2023-04-16T09:47:22.803Z,18.30
2023-04-16T09:48:34.437Z,19.55
2023-04-16T09:49:42.178Z,18.30
2023-04-16T09:50:51.131Z,19.35
2023-04-16T09:51:56.097Z,19.60
2023-04-16T09:53:02.441Z,19.42
2023-04-16T09:54:07.725Z,19.73
2023-04-16T09:55:09.310Z,17.60
2023-04-16T09:56:12.339Z,17.48
2023-04-16T09:57:14.106Z,19.65
2023-04-16T09:58:19.731Z,18.33
2023-04-16T09:59:22.456Z,19.33
2023-04-16T10:00:23.908Z,18.45
2023-04-16T10:01:25.979Z,23.38
2023-04-16T10:02:29.219Z,20.20
2023-04-16T10:03:35.834Z,20.20
2023-04-16T10:04:52.053Z,22.60
2023-04-16T10:05:53.897Z,21.52
2023-04-16T10:07:06.108Z,20.92
2023-04-16T10:08:14.563Z,20.08
2023-04-16T10:09:16.097Z,21.83
2023-04-16T10:10:17.818Z,21.75
2023-04-16T10:11:20.882Z,22.25
2023-04-16T10:12:22.442Z,22.88
2023-04-16T10:13:27.760Z,22.40
2023-04-16T10:14:29.344Z,23.98
2023-04-16T10:15:31.107Z,23.58
2023-04-16T10:16:33.401Z,21.23
2023-04-16T10:17:36.301Z,23.15
2023-04-16T10:18:42.342Z,24.05
2023-04-16T10:19:44.344Z,28.27
2023-04-16T10:20:46.179Z,21.50
2023-04-16T10:21:48.462Z,21.77
2023-04-16T10:22:50.547Z,21.70
2023-04-16T10:23:52.805Z,22.55
2023-04-16T10:24:55.656Z,24.48
2023-04-16T10:25:59.583Z,26.20
2023-04-16T10:27:01.751Z,23.05
2023-04-16T10:28:03.500Z,23.67
2023-04-16T10:29:06.658Z,25.83
2023-04-16T10:30:09.353Z,24.83
2023-04-16T10:31:12.338Z,21.15
2023-04-16T10:32:14.460Z,24.75
2023-04-16T10:33:16.344Z,24.40
2023-04-16T10:34:19.698Z,26.48
2023-04-16T10:35:21.637Z,24.30
2023-04-16T10:36:24.673Z,22.63
2023-04-16T10:37:32.456Z,25.23
2023-04-16T10:38:35.208Z,25.75
2023-04-16T10:39:39.598Z,23.20
2023-04-16T10:40:44.926Z,22.20
2023-04-16T10:41:46.837Z,25.70
2023-04-16T10:42:59.288Z,22.25
2023-04-16T10:44:09.907Z,23.15
2023-04-16T10:45:11.554Z,22.48
2023-04-16T10:46:19.748Z,25.25
2023-04-16T10:47:24.771Z,21.92
2023-04-16T10:48:27.466Z,22.90
2023-04-16T10:49:35.521Z,23.70
2023-04-16T10:50:38.097Z,22.73
2023-04-16T10:51:39.634Z,23.08
2023-04-16T10:52:41.188Z,23.00
2023-04-16T10:53:42.788Z,23.73
2023-04-16T10:54:44.790Z,23.40
2023-04-16T10:56:04.837Z,23.10
2023-04-16T10:57:08.944Z,23.02
2023-04-16T10:58:27.805Z,23.15
2023-04-16T10:59:35.228Z,23.15
2023-04-16T11:00:51.213Z,21.05
2023-04-16T11:01:56.600Z,23.52
2023-04-16T11:02:58.470Z,21.98
2023-04-16T11:04:04.450Z,23.25
2023-04-16T11:05:06.614Z,21.40
2023-04-16T11:06:27.913Z,21.88
2023-04-16T11:07:35.930Z,23.00
2023-04-16T11:08:53.351Z,22.05
2023-04-16T11:10:05.365Z,21.85
2023-04-16T11:11:07.147Z,19.48
2023-04-16T11:12:12.541Z,20.40
2023-04-16T11:13:14.352Z,19.27
2023-04-16T11:14:15.923Z,17.80
2023-04-16T11:15:19.551Z,20.00
2023-04-16T11:16:21.114Z,20.33
2023-04-16T11:17:22.810Z,16.75
2023-04-16T11:18:26.011Z,16.48
2023-04-16T11:19:27.753Z,17.77
2023-04-16T11:20:29.250Z,15.95
2023-04-16T11:21:31.758Z,14.82
2023-04-16T11:22:39.008Z,17.95
2023-04-16T11:23:48.462Z,15.23
2023-04-16T11:24:57.029Z,16.13
2023-04-16T11:25:59.198Z,14.52
2023-04-16T11:27:01.694Z,14.82
2023-04-16T11:28:03.202Z,15.75
2023-04-16T11:29:14.595Z,14.45
2023-04-16T11:30:16.878Z,16.13
2023-04-16T11:31:18.460Z,15.90
2023-04-16T11:32:23.256Z,15.07
2023-04-16T11:33:25.616Z,13.73
2023-04-16T11:34:27.159Z,15.48
2023-04-16T11:35:28.684Z,15.82
2023-04-16T11:36:45.983Z,14.80
2023-04-16T11:37:48.722Z,15.77
2023-04-16T11:38:50.250Z,12.82
2023-04-16T11:39:52.995Z,13.10
2023-04-16T11:40:55.088Z,13.60
2023-04-16T11:41:56.656Z,14.83
2023-04-16T11:43:02.802Z,13.13
2023-04-16T11:44:21.163Z,13.13
2023-04-16T11:45:22.632Z,13.65
2023-04-16T11:46:38.170Z,12.85
2023-04-16T11:47:51.983Z,13.50
2023-04-16T11:48:55.495Z,13.18
2023-04-16T11:49:58.654Z,12.93
2023-04-16T11:51:00.222Z,12.93
2023-04-16T11:52:01.742Z,11.43
2023-04-16T11:53:06.316Z,11.88
2023-04-16T11:54:11.118Z,12.48
2023-04-16T11:55:13.496Z,11.25
2023-04-16T11:56:15.539Z,12.15
2023-04-16T11:57:24.533Z,11.07
2023-04-16T11:58:26.089Z,15.27
2023-04-16T11:59:27.998Z,16.20
2023-04-16T12:00:35.083Z,13.13
2023-04-16T12:01:37.626Z,13.70
2023-04-16T12:02:41.961Z,14.13
2023-04-16T12:03:49.568Z,12.98
2023-04-16T12:04:51.718Z,11.13
2023-04-16T12:05:53.381Z,12.88
2023-04-16T12:07:08.676Z,12.55
2023-04-16T12:08:11.897Z,12.55
2023-04-16T12:09:27.193Z,11.90
2023-04-16T12:10:30.242Z,11.98
2023-04-16T12:11:41.375Z,11.65
2023-04-16T12:12:42.926Z,11.55
2023-04-16T12:14:07.777Z,10.48
2023-04-16T12:15:09.665Z,11.32
2023-04-16T12:16:19.807Z,9.93
2023-04-16T12:17:21.543Z,10.57
2023-04-16T12:18:26.821Z,10.50
2023-04-16T12:19:28.382Z,10.82
2023-04-16T12:20:41.586Z,10.60
2023-04-16T12:21:45.679Z,9.40
2023-04-16T12:22:49.527Z,13.07
2023-04-16T12:23:53.412Z,11.00
2023-04-16T12:25:11.230Z,11.13
2023-04-16T12:26:12.751Z,11.98
2023-04-16T12:27:16.226Z,11.00
2023-04-16T12:28:34.879Z,11.73
2023-04-16T12:29:37.384Z,9.60
2023-04-16T12:30:50.184Z,8.30
2023-04-16T12:31:53.082Z,10.10
2023-04-16T12:33:17.628Z,10.90
2023-04-16T12:34:20.755Z,8.90
2023-04-16T12:35:34.867Z,8.93
2023-04-16T12:36:36.957Z,9.35
2023-04-16T12:37:39.434Z,9.15
2023-04-16T12:38:40.938Z,8.80
2023-04-16T12:39:42.400Z,7.35
2023-04-16T12:40:43.880Z,7.28
2023-04-16T12:41:45.458Z,8.10
2023-04-16T12:42:46.991Z,6.85
2023-04-16T12:43:48.478Z,6.95
2023-04-16T12:44:50.037Z,7.93
2023-04-16T12:45:51.835Z,7.03
2023-04-16T12:46:53.334Z,7.95
2023-04-16T12:47:55.698Z,8.30
2023-04-16T12:48:57.609Z,7.20
2023-04-16T12:49:59.250Z,7.30
2023-04-16T12:51:00.953Z,5.95
2023-04-16T12:52:02.834Z,6.60
2023-04-16T12:53:07.366Z,6.00
2023-04-16T12:54:08.916Z,6.72
2023-04-16T12:55:10.536Z,6.18
2023-04-16T12:56:12.033Z,5.78
2023-04-16T12:57:13.507Z,5.80
2023-04-16T12:58:14.992Z,6.50
2023-04-16T12:59:17.782Z,4.90
2023-04-16T13:00:19.988Z,4.95
2023-04-16T13:01:22.414Z,5.35
2023-04-16T13:02:25.206Z,5.25
2023-04-16T13:03:27.228Z,6.45
2023-04-16T13:04:29.028Z,4.70
2023-04-16T13:05:30.765Z,4.13
2023-04-16T13:06:33.691Z,3.70
2023-04-16T13:07:35.308Z,4.40
2023-04-16T13:08:37.425Z,3.80
2023-04-16T13:09:39.898Z,3.38
2023-04-16T13:10:41.560Z,3.42
2023-04-16T13:11:43.033Z,3.03
2023-04-16T13:12:46.474Z,3.22
2023-04-16T13:13:48.059Z,3.13
2023-04-16T13:14:49.521Z,3.97
2023-04-16T13:15:51.186Z,2.97
2023-04-16T13:16:52.764Z,3.83
2023-04-16T13:17:54.246Z,3.72
2023-04-16T13:18:55.888Z,2.95
2023-04-16T13:19:57.362Z,3.20
2023-04-16T13:20:59.296Z,3.92
2023-04-16T13:22:00.809Z,4.00
2023-04-16T13:23:05.068Z,3.70
2023-04-16T13:24:06.829Z,4.28
2023-04-16T13:25:08.857Z,3.78
2023-04-16T13:26:10.389Z,3.67
2023-04-16T13:27:12.542Z,4.18
2023-04-16T13:28:14.217Z,3.10
2023-04-16T13:29:15.961Z,3.58
2023-04-16T13:30:17.775Z,4.50
2023-04-16T13:31:21.933Z,3.38
2023-04-16T13:32:23.821Z,4.22
2023-04-16T13:33:25.978Z,3.20
2023-04-16T13:34:27.514Z,3.13
2023-04-16T13:35:29.618Z,3.65
2023-04-16T13:36:32.142Z,3.58
2023-04-16T13:37:34.558Z,3.70
2023-04-16T13:38:36.362Z,3.72
2023-04-16T13:39:37.919Z,3.50
2023-04-16T13:40:39.430Z,3.28
2023-04-16T13:41:41.556Z,3.63
2023-04-16T13:42:43.029Z,3.53
2023-04-16T13:43:44.575Z,3.70
2023-04-16T13:44:48.795Z,3.72